sensor_id;sensor_type;location;lat;lon;timestamp;P1;durP1;ratioP1;P2;durP2;ratioP2
45476;SDS011;31958;51.756;-2.556;2022-12-24T00:01:03;29.13;;;3.55;;
45476;SDS011;31958;51.756;-2.556;2022-12-24T00:03:29;25.83;;;3.72;;
45476;SDS011;31958;51.756;-2.556;2022-12-24T00:05:55;31.65;;;4.47;;
45476;SDS011;31958;51.756;-2.556;2022-12-24T00:08:20;23.63;;;3.35;;
45476;SDS011;31958;51.756;-2.556;2022-12-24T00:10:52;40.63;;;3.60;;
45476;SDS011;31958;51.756;-2.556;2022-12-24T00:13:18;24.73;;;3.40;;
45476;SDS011;31958;51.756;-2.556;2022-12-24T00:15:44;26.25;;;2.58;;
45476;SDS011;31958;51.756;-2.556;2022-12-24T00:18:09;22.77;;;2.75;;
45476;SDS011;31958;51.756;-2.556;2022-12-24T00:20:34;22.30;;;3.65;;
45476;SDS011;31958;51.756;-2.556;2022-12-24T00:23:00;30.02;;;3.33;;
45476;SDS011;31958;51.756;-2.556;2022-12-24T00:25:25;22.83;;;3.22;;
45476;SDS011;31958;51.756;-2.556;2022-12-24T00:27:51;18.75;;;3.05;;
45476;SDS011;31958;51.756;-2.556;2022-12-24T00:30:16;22.92;;;3.35;;
45476;SDS011;31958;51.756;-2.556;2022-12-24T00:32:41;34.20;;;3.95;;
45476;SDS011;31958;51.756;-2.556;2022-12-24T00:35:07;33.70;;;4.30;;
45476;SDS011;31958;51.756;-2.556;2022-12-24T00:37:32;30.77;;;2.75;;
45476;SDS011;31958;51.756;-2.556;2022-12-24T00:39:58;31.80;;;3.35;;
45476;SDS011;31958;51.756;-2.556;2022-12-24T00:42:24;29.77;;;3.38;;
45476;SDS011;31958;51.756;-2.556;2022-12-24T00:44:50;35.20;;;3.20;;
45476;SDS011;31958;51.756;-2.556;2022-12-24T00:47:15;19.80;;;2.50;;
45476;SDS011;31958;51.756;-2.556;2022-12-24T00:49:40;23.63;;;3.00;;
45476;SDS011;31958;51.756;-2.556;2022-12-24T00:52:06;26.33;;;2.95;;
45476;SDS011;31958;51.756;-2.556;2022-12-24T00:54:31;23.90;;;2.90;;
45476;SDS011;31958;51.756;-2.556;2022-12-24T00:56:57;20.38;;;3.60;;
45476;SDS011;31958;51.756;-2.556;2022-12-24T00:59:22;19.27;;;2.95;;
45476;SDS011;31958;51.756;-2.556;2022-12-24T01:01:47;23.35;;;3.88;;
45476;SDS011;31958;51.756;-2.556;2022-12-24T01:04:13;30.30;;;4.65;;
45476;SDS011;31958;51.756;-2.556;2022-12-24T01:06:57;27.17;;;3.72;;
45476;SDS011;31958;51.756;-2.556;2022-12-24T01:09:22;26.23;;;3.22;;
45476;SDS011;31958;51.756;-2.556;2022-12-24T01:11:47;27.88;;;4.00;;
45476;SDS011;31958;51.756;-2.556;2022-12-24T01:14:13;32.55;;;3.22;;
45476;SDS011;31958;51.756;-2.556;2022-12-24T01:16:38;26.92;;;2.97;;
45476;SDS011;31958;51.756;-2.556;2022-12-24T01:19:04;32.13;;;3.45;;
45476;SDS011;31958;51.756;-2.556;2022-12-24T01:21:29;19.88;;;2.97;;
45476;SDS011;31958;51.756;-2.556;2022-12-24T01:23:55;25.23;;;3.28;;
45476;SDS011;31958;51.756;-2.556;2022-12-24T01:26:20;22.58;;;3.08;;
45476;SDS011;31958;51.756;-2.556;2022-12-24T01:28:45;24.67;;;2.65;;
45476;SDS011;31958;51.756;-2.556;2022-12-24T01:31:15;26.05;;;3.58;;
45476;SDS011;31958;51.756;-2.556;2022-12-24T01:33:42;21.63;;;3.22;;
45476;SDS011;31958;51.756;-2.556;2022-12-24T01:36:09;20.98;;;3.15;;
45476;SDS011;31958;51.756;-2.556;2022-12-24T01:38:34;22.42;;;2.25;;
45476;SDS011;31958;51.756;-2.556;2022-12-24T01:41:00;23.55;;;2.95;;
45476;SDS011;31958;51.756;-2.556;2022-12-24T01:43:43;24.60;;;3.22;;
45476;SDS011;31958;51.756;-2.556;2022-12-24T01:46:17;21.08;;;3.22;;
45476;SDS011;31958;51.756;-2.556;2022-12-24T01:48:57;16.67;;;2.90;;
45476;SDS011;31958;51.756;-2.556;2022-12-24T01:54:26;24.02;;;2.53;;
45476;SDS011;31958;51.756;-2.556;2022-12-24T01:56:57;19.40;;;1.95;;
45476;SDS011;31958;51.756;-2.556;2022-12-24T01:59:25;20.20;;;2.92;;
45476;SDS011;31958;51.756;-2.556;2022-12-24T02:01:50;17.05;;;1.80;;
45476;SDS011;31958;51.756;-2.556;2022-12-24T02:07:00;16.40;;;2.08;;
45476;SDS011;31958;51.756;-2.556;2022-12-24T02:09:26;15.60;;;1.70;;
45476;SDS011;31958;51.756;-2.556;2022-12-24T02:11:51;20.23;;;1.80;;
45476;SDS011;31958;51.756;-2.556;2022-12-24T02:14:17;16.25;;;1.98;;
45476;SDS011;31958;51.756;-2.556;2022-12-24T02:17:07;9.95;;;1.48;;
45476;SDS011;31958;51.756;-2.556;2022-12-24T02:28:31;7.72;;;1.50;;
45476;SDS011;31958;51.756;-2.556;2022-12-24T02:31:26;13.38;;;2.30;;
45476;SDS011;31958;51.756;-2.556;2022-12-24T02:34:06;11.45;;;2.10;;
45476;SDS011;31958;51.756;-2.556;2022-12-24T02:36:41;13.73;;;2.00;;
45476;SDS011;31958;51.756;-2.556;2022-12-24T02:39:11;15.13;;;1.60;;
45476;SDS011;31958;51.756;-2.556;2022-12-24T02:41:42;8.77;;;1.83;;
45476;SDS011;31958;51.756;-2.556;2022-12-24T02:44:30;15.02;;;2.08;;
45476;SDS011;31958;51.756;-2.556;2022-12-24T02:47:01;8.98;;;1.13;;
45476;SDS011;31958;51.756;-2.556;2022-12-24T02:49:27;8.27;;;1.10;;
45476;SDS011;31958;51.756;-2.556;2022-12-24T02:51:53;9.32;;;1.83;;
45476;SDS011;31958;51.756;-2.556;2022-12-24T02:54:18;10.10;;;1.42;;
45476;SDS011;31958;51.756;-2.556;2022-12-24T03:05:27;10.75;;;1.15;;
45476;SDS011;31958;51.756;-2.556;2022-12-24T03:07:41;18.05;;;1.33;;
45476;SDS011;31958;51.756;-2.556;2022-12-24T03:10:20;17.25;;;1.88;;
45476;SDS011;31958;51.756;-2.556;2022-12-24T03:12:49;10.55;;;1.15;;
45476;SDS011;31958;51.756;-2.556;2022-12-24T03:15:17;8.10;;;1.60;;
45476;SDS011;31958;51.756;-2.556;2022-12-24T03:17:46;9.77;;;1.35;;
45476;SDS011;31958;51.756;-2.556;2022-12-24T03:20:14;11.27;;;1.30;;
45476;SDS011;31958;51.756;-2.556;2022-12-24T03:22:43;15.38;;;1.20;;
45476;SDS011;31958;51.756;-2.556;2022-12-24T03:25:09;15.77;;;1.83;;
45476;SDS011;31958;51.756;-2.556;2022-12-24T03:27:34;9.18;;;1.33;;
45476;SDS011;31958;51.756;-2.556;2022-12-24T03:30:01;17.65;;;1.75;;
45476;SDS011;31958;51.756;-2.556;2022-12-24T03:32:29;13.55;;;1.70;;
45476;SDS011;31958;51.756;-2.556;2022-12-24T03:34:55;15.32;;;1.42;;
45476;SDS011;31958;51.756;-2.556;2022-12-24T03:37:21;31.98;;;1.70;;
45476;SDS011;31958;51.756;-2.556;2022-12-24T03:39:46;16.77;;;1.70;;
45476;SDS011;31958;51.756;-2.556;2022-12-24T03:42:12;12.40;;;1.02;;
45476;SDS011;31958;51.756;-2.556;2022-12-24T03:44:37;9.93;;;1.42;;
45476;SDS011;31958;51.756;-2.556;2022-12-24T03:47:03;12.07;;;1.20;;
45476;SDS011;31958;51.756;-2.556;2022-12-24T03:49:28;10.93;;;0.98;;
45476;SDS011;31958;51.756;-2.556;2022-12-24T03:51:53;15.50;;;1.50;;
45476;SDS011;31958;51.756;-2.556;2022-12-24T03:54:19;15.45;;;1.40;;
45476;SDS011;31958;51.756;-2.556;2022-12-24T03:56:44;14.18;;;1.30;;
45476;SDS011;31958;51.756;-2.556;2022-12-24T03:59:10;26.63;;;1.83;;
45476;SDS011;31958;51.756;-2.556;2022-12-24T04:01:35;14.23;;;1.20;;
45476;SDS011;31958;51.756;-2.556;2022-12-24T04:04:00;9.57;;;1.20;;
45476;SDS011;31958;51.756;-2.556;2022-12-24T04:06:26;18.88;;;1.30;;
45476;SDS011;31958;51.756;-2.556;2022-12-24T04:08:51;8.05;;;1.35;;
45476;SDS011;31958;51.756;-2.556;2022-12-24T04:11:16;18.90;;;1.50;;
45476;SDS011;31958;51.756;-2.556;2022-12-24T04:13:42;10.18;;;1.27;;
45476;SDS011;31958;51.756;-2.556;2022-12-24T04:16:09;26.58;;;1.63;;
45476;SDS011;31958;51.756;-2.556;2022-12-24T04:18:36;21.77;;;1.80;;
45476;SDS011;31958;51.756;-2.556;2022-12-24T04:21:02;30.30;;;2.05;;
45476;SDS011;31958;51.756;-2.556;2022-12-24T04:23:31;27.15;;;1.60;;
45476;SDS011;31958;51.756;-2.556;2022-12-24T04:26:01;10.43;;;1.60;;
45476;SDS011;31958;51.756;-2.556;2022-12-24T04:28:28;12.18;;;1.23;;
45476;SDS011;31958;51.756;-2.556;2022-12-24T04:30:57;33.40;;;1.90;;
45476;SDS011;31958;51.756;-2.556;2022-12-24T04:33:24;15.10;;;1.40;;
45476;SDS011;31958;51.756;-2.556;2022-12-24T04:35:49;11.63;;;1.08;;
45476;SDS011;31958;51.756;-2.556;2022-12-24T04:38:15;10.77;;;0.98;;
45476;SDS011;31958;51.756;-2.556;2022-12-24T04:40:40;5.25;;;0.93;;
45476;SDS011;31958;51.756;-2.556;2022-12-24T04:43:05;21.52;;;1.85;;
45476;SDS011;31958;51.756;-2.556;2022-12-24T04:45:31;19.50;;;1.25;;
45476;SDS011;31958;51.756;-2.556;2022-12-24T04:47:57;13.25;;;1.42;;
45476;SDS011;31958;51.756;-2.556;2022-12-24T04:50:22;18.60;;;1.13;;
45476;SDS011;31958;51.756;-2.556;2022-12-24T04:52:48;17.05;;;1.38;;
45476;SDS011;31958;51.756;-2.556;2022-12-24T04:55:13;14.93;;;1.08;;
45476;SDS011;31958;51.756;-2.556;2022-12-24T04:57:38;15.95;;;1.40;;
45476;SDS011;31958;51.756;-2.556;2022-12-24T05:00:04;20.15;;;1.40;;
45476;SDS011;31958;51.756;-2.556;2022-12-24T05:02:31;18.60;;;2.00;;
45476;SDS011;31958;51.756;-2.556;2022-12-24T05:04:56;12.60;;;1.60;;
45476;SDS011;31958;51.756;-2.556;2022-12-24T05:07:21;14.90;;;1.75;;
45476;SDS011;31958;51.756;-2.556;2022-12-24T05:09:47;11.32;;;1.30;;
45476;SDS011;31958;51.756;-2.556;2022-12-24T05:12:12;15.90;;;1.30;;
45476;SDS011;31958;51.756;-2.556;2022-12-24T05:14:38;14.63;;;1.23;;
45476;SDS011;31958;51.756;-2.556;2022-12-24T05:17:04;42.83;;;2.53;;
45476;SDS011;31958;51.756;-2.556;2022-12-24T05:19:29;11.57;;;1.40;;
45476;SDS011;31958;51.756;-2.556;2022-12-24T05:21:55;16.67;;;1.70;;
45476;SDS011;31958;51.756;-2.556;2022-12-24T05:24:40;12.90;;;1.33;;
45476;SDS011;31958;51.756;-2.556;2022-12-24T05:27:24;12.00;;;1.42;;
45476;SDS011;31958;51.756;-2.556;2022-12-24T05:29:49;13.35;;;1.33;;
45476;SDS011;31958;51.756;-2.556;2022-12-24T05:32:15;23.10;;;1.77;;
45476;SDS011;31958;51.756;-2.556;2022-12-24T05:34:40;9.25;;;1.23;;
45476;SDS011;31958;51.756;-2.556;2022-12-24T05:37:05;7.57;;;1.33;;
45476;SDS011;31958;51.756;-2.556;2022-12-24T05:39:31;9.43;;;1.25;;
45476;SDS011;31958;51.756;-2.556;2022-12-24T05:41:56;11.82;;;1.17;;
45476;SDS011;31958;51.756;-2.556;2022-12-24T05:44:21;5.93;;;1.00;;
45476;SDS011;31958;51.756;-2.556;2022-12-24T05:46:47;5.90;;;1.10;;
45476;SDS011;31958;51.756;-2.556;2022-12-24T05:49:12;9.77;;;1.50;;
45476;SDS011;31958;51.756;-2.556;2022-12-24T05:51:38;9.55;;;1.70;;
45476;SDS011;31958;51.756;-2.556;2022-12-24T05:54:07;21.90;;;2.22;;
45476;SDS011;31958;51.756;-2.556;2022-12-24T05:56:32;12.20;;;1.85;;
45476;SDS011;31958;51.756;-2.556;2022-12-24T05:58:57;8.57;;;1.83;;
45476;SDS011;31958;51.756;-2.556;2022-12-24T06:01:23;4.30;;;1.30;;
45476;SDS011;31958;51.756;-2.556;2022-12-24T06:03:49;12.75;;;1.40;;
45476;SDS011;31958;51.756;-2.556;2022-12-24T06:06:17;16.40;;;1.92;;
45476;SDS011;31958;51.756;-2.556;2022-12-24T06:08:47;12.43;;;1.45;;
45476;SDS011;31958;51.756;-2.556;2022-12-24T06:11:14;14.73;;;2.05;;
45476;SDS011;31958;51.756;-2.556;2022-12-24T06:13:41;22.02;;;1.88;;
45476;SDS011;31958;51.756;-2.556;2022-12-24T06:16:07;141.23;;;5.35;;
45476;SDS011;31958;51.756;-2.556;2022-12-24T06:18:34;9.40;;;1.50;;
45476;SDS011;31958;51.756;-2.556;2022-12-24T06:21:00;15.95;;;1.88;;
45476;SDS011;31958;51.756;-2.556;2022-12-24T06:23:27;5.28;;;1.60;;
45476;SDS011;31958;51.756;-2.556;2022-12-24T06:25:54;10.63;;;1.42;;
45476;SDS011;31958;51.756;-2.556;2022-12-24T06:28:20;18.48;;;1.90;;
45476;SDS011;31958;51.756;-2.556;2022-12-24T06:30:49;6.53;;;1.80;;
45476;SDS011;31958;51.756;-2.556;2022-12-24T06:33:14;13.13;;;1.60;;
45476;SDS011;31958;51.756;-2.556;2022-12-24T06:35:41;11.65;;;1.85;;
45476;SDS011;31958;51.756;-2.556;2022-12-24T06:38:06;19.40;;;1.73;;
45476;SDS011;31958;51.756;-2.556;2022-12-24T06:40:32;10.32;;;1.80;;
45476;SDS011;31958;51.756;-2.556;2022-12-24T06:42:57;9.25;;;1.25;;
45476;SDS011;31958;51.756;-2.556;2022-12-24T06:45:23;9.32;;;1.40;;
45476;SDS011;31958;51.756;-2.556;2022-12-24T06:47:48;12.52;;;1.80;;
45476;SDS011;31958;51.756;-2.556;2022-12-24T06:50:13;13.95;;;1.92;;
45476;SDS011;31958;51.756;-2.556;2022-12-24T06:52:39;14.85;;;1.27;;
45476;SDS011;31958;51.756;-2.556;2022-12-24T06:55:04;12.15;;;1.50;;
45476;SDS011;31958;51.756;-2.556;2022-12-24T06:57:30;12.88;;;1.35;;
45476;SDS011;31958;51.756;-2.556;2022-12-24T06:59:56;8.13;;;1.10;;
45476;SDS011;31958;51.756;-2.556;2022-12-24T07:02:22;5.88;;;1.00;;
45476;SDS011;31958;51.756;-2.556;2022-12-24T07:04:48;3.42;;;0.80;;
45476;SDS011;31958;51.756;-2.556;2022-12-24T07:07:13;10.82;;;0.90;;
45476;SDS011;31958;51.756;-2.556;2022-12-24T07:09:39;5.60;;;0.85;;
45476;SDS011;31958;51.756;-2.556;2022-12-24T07:12:04;2.05;;;0.88;;
45476;SDS011;31958;51.756;-2.556;2022-12-24T07:14:29;24.63;;;1.20;;
45476;SDS011;31958;51.756;-2.556;2022-12-24T07:16:56;6.90;;;0.77;;
45476;SDS011;31958;51.756;-2.556;2022-12-24T07:19:22;7.72;;;1.38;;
45476;SDS011;31958;51.756;-2.556;2022-12-24T07:21:48;9.32;;;1.38;;
45476;SDS011;31958;51.756;-2.556;2022-12-24T07:24:14;1.13;;;0.63;;
45476;SDS011;31958;51.756;-2.556;2022-12-24T07:26:39;11.00;;;1.25;;
45476;SDS011;31958;51.756;-2.556;2022-12-24T07:29:05;8.90;;;1.38;;
45476;SDS011;31958;51.756;-2.556;2022-12-24T07:31:30;7.13;;;1.38;;
45476;SDS011;31958;51.756;-2.556;2022-12-24T07:33:55;23.48;;;2.05;;
45476;SDS011;31958;51.756;-2.556;2022-12-24T07:36:21;11.95;;;1.98;;
45476;SDS011;31958;51.756;-2.556;2022-12-24T07:38:47;24.27;;;3.15;;
45476;SDS011;31958;51.756;-2.556;2022-12-24T07:41:12;27.90;;;2.50;;
45476;SDS011;31958;51.756;-2.556;2022-12-24T07:43:38;29.00;;;3.63;;
45476;SDS011;31958;51.756;-2.556;2022-12-24T07:46:03;35.50;;;3.47;;
45476;SDS011;31958;51.756;-2.556;2022-12-24T07:48:29;31.70;;;2.33;;
45476;SDS011;31958;51.756;-2.556;2022-12-24T07:50:56;35.53;;;2.92;;
45476;SDS011;31958;51.756;-2.556;2022-12-24T07:53:22;34.00;;;3.22;;
45476;SDS011;31958;51.756;-2.556;2022-12-24T07:55:48;23.70;;;3.03;;
45476;SDS011;31958;51.756;-2.556;2022-12-24T07:58:14;23.77;;;2.53;;
45476;SDS011;31958;51.756;-2.556;2022-12-24T08:00:39;27.65;;;2.72;;
45476;SDS011;31958;51.756;-2.556;2022-12-24T08:03:04;28.85;;;3.63;;
45476;SDS011;31958;51.756;-2.556;2022-12-24T08:05:36;35.45;;;3.50;;
45476;SDS011;31958;51.756;-2.556;2022-12-24T08:08:02;29.70;;;3.00;;
45476;SDS011;31958;51.756;-2.556;2022-12-24T08:10:27;30.90;;;2.47;;
45476;SDS011;31958;51.756;-2.556;2022-12-24T08:12:52;43.63;;;4.65;;
45476;SDS011;31958;51.756;-2.556;2022-12-24T08:15:18;29.15;;;3.88;;
45476;SDS011;31958;51.756;-2.556;2022-12-24T08:17:43;35.25;;;3.97;;
45476;SDS011;31958;51.756;-2.556;2022-12-24T08:20:09;36.72;;;3.03;;
45476;SDS011;31958;51.756;-2.556;2022-12-24T08:22:35;39.20;;;3.65;;
45476;SDS011;31958;51.756;-2.556;2022-12-24T08:25:00;45.85;;;5.45;;
45476;SDS011;31958;51.756;-2.556;2022-12-24T08:27:26;38.67;;;3.00;;
45476;SDS011;31958;51.756;-2.556;2022-12-24T08:29:51;35.58;;;3.55;;
45476;SDS011;31958;51.756;-2.556;2022-12-24T08:32:17;47.17;;;3.50;;
45476;SDS011;31958;51.756;-2.556;2022-12-24T08:34:42;41.90;;;3.13;;
45476;SDS011;31958;51.756;-2.556;2022-12-24T08:37:08;41.00;;;3.80;;
45476;SDS011;31958;51.756;-2.556;2022-12-24T08:39:33;38.13;;;2.78;;
45476;SDS011;31958;51.756;-2.556;2022-12-24T08:41:58;26.60;;;3.88;;
45476;SDS011;31958;51.756;-2.556;2022-12-24T08:44:24;34.13;;;3.25;;
45476;SDS011;31958;51.756;-2.556;2022-12-24T08:46:49;24.77;;;3.15;;
45476;SDS011;31958;51.756;-2.556;2022-12-24T08:49:15;18.40;;;1.70;;
45476;SDS011;31958;51.756;-2.556;2022-12-24T08:51:40;13.70;;;1.55;;
45476;SDS011;31958;51.756;-2.556;2022-12-24T08:54:05;28.85;;;2.88;;
45476;SDS011;31958;51.756;-2.556;2022-12-24T08:56:31;44.70;;;4.18;;
45476;SDS011;31958;51.756;-2.556;2022-12-24T08:58:58;29.75;;;3.47;;
45476;SDS011;31958;51.756;-2.556;2022-12-24T09:01:24;15.15;;;1.95;;
45476;SDS011;31958;51.756;-2.556;2022-12-24T09:03:49;17.38;;;1.40;;
45476;SDS011;31958;51.756;-2.556;2022-12-24T09:06:15;18.20;;;2.00;;
45476;SDS011;31958;51.756;-2.556;2022-12-24T09:08:40;12.57;;;1.35;;
45476;SDS011;31958;51.756;-2.556;2022-12-24T09:11:07;36.80;;;4.38;;
45476;SDS011;31958;51.756;-2.556;2022-12-24T09:13:34;42.00;;;5.30;;
45476;SDS011;31958;51.756;-2.556;2022-12-24T09:15:59;17.30;;;2.08;;
45476;SDS011;31958;51.756;-2.556;2022-12-24T09:18:25;43.45;;;9.23;;
45476;SDS011;31958;51.756;-2.556;2022-12-24T09:21:02;49.78;;;7.82;;
45476;SDS011;31958;51.756;-2.556;2022-12-24T09:23:30;30.67;;;4.38;;
45476;SDS011;31958;51.756;-2.556;2022-12-24T09:25:57;33.17;;;4.75;;
45476;SDS011;31958;51.756;-2.556;2022-12-24T09:28:23;38.33;;;7.03;;
45476;SDS011;31958;51.756;-2.556;2022-12-24T09:30:58;26.65;;;5.45;;
45476;SDS011;31958;51.756;-2.556;2022-12-24T09:33:25;38.50;;;5.57;;
45476;SDS011;31958;51.756;-2.556;2022-12-24T09:35:52;37.97;;;4.85;;
45476;SDS011;31958;51.756;-2.556;2022-12-24T09:38:18;32.33;;;4.00;;
45476;SDS011;31958;51.756;-2.556;2022-12-24T09:40:44;34.25;;;4.60;;
45476;SDS011;31958;51.756;-2.556;2022-12-24T09:43:29;36.75;;;4.68;;
45476;SDS011;31958;51.756;-2.556;2022-12-24T09:48:34;43.20;;;4.50;;
45476;SDS011;31958;51.756;-2.556;2022-12-24T09:56:01;31.67;;;3.20;;
45476;SDS011;31958;51.756;-2.556;2022-12-24T09:58:30;32.60;;;3.70;;
45476;SDS011;31958;51.756;-2.556;2022-12-24T10:00:59;19.02;;;2.22;;
45476;SDS011;31958;51.756;-2.556;2022-12-24T10:03:24;33.35;;;3.28;;
45476;SDS011;31958;51.756;-2.556;2022-12-24T10:05:56;18.58;;;2.30;;
45476;SDS011;31958;51.756;-2.556;2022-12-24T10:11:01;24.35;;;1.85;;
45476;SDS011;31958;51.756;-2.556;2022-12-24T10:13:43;22.25;;;1.90;;
45476;SDS011;31958;51.756;-2.556;2022-12-24T10:24:31;27.38;;;3.20;;
45476;SDS011;31958;51.756;-2.556;2022-12-24T10:27:13;23.02;;;3.20;;
45476;SDS011;31958;51.756;-2.556;2022-12-24T10:29:41;30.70;;;4.28;;
45476;SDS011;31958;51.756;-2.556;2022-12-24T10:34:43;25.23;;;4.82;;
45476;SDS011;31958;51.756;-2.556;2022-12-24T10:37:21;33.55;;;5.65;;
45476;SDS011;31958;51.756;-2.556;2022-12-24T10:39:48;27.63;;;4.88;;
45476;SDS011;31958;51.756;-2.556;2022-12-24T10:42:14;22.67;;;3.50;;
45476;SDS011;31958;51.756;-2.556;2022-12-24T10:44:41;32.05;;;6.10;;
45476;SDS011;31958;51.756;-2.556;2022-12-24T10:47:09;26.73;;;5.28;;
45476;SDS011;31958;51.756;-2.556;2022-12-24T10:49:37;32.03;;;6.72;;
45476;SDS011;31958;51.756;-2.556;2022-12-24T10:52:11;29.10;;;7.80;;
45476;SDS011;31958;51.756;-2.556;2022-12-24T10:58:03;38.70;;;7.80;;
45476;SDS011;31958;51.756;-2.556;2022-12-24T11:00:30;35.00;;;6.30;;
45476;SDS011;31958;51.756;-2.556;2022-12-24T11:03:06;37.38;;;6.40;;
45476;SDS011;31958;51.756;-2.556;2022-12-24T11:06:05;33.92;;;6.32;;
45476;SDS011;31958;51.756;-2.556;2022-12-24T11:08:31;31.10;;;7.07;;
45476;SDS011;31958;51.756;-2.556;2022-12-24T11:10:59;36.45;;;6.55;;
45476;SDS011;31958;51.756;-2.556;2022-12-24T11:13:27;24.58;;;4.93;;
45476;SDS011;31958;51.756;-2.556;2022-12-24T11:16:09;32.75;;;6.40;;
45476;SDS011;31958;51.756;-2.556;2022-12-24T11:21:08;33.17;;;6.30;;
45476;SDS011;31958;51.756;-2.556;2022-12-24T11:23:34;41.85;;;7.63;;
45476;SDS011;31958;51.756;-2.556;2022-12-24T11:25:59;41.20;;;6.10;;
45476;SDS011;31958;51.756;-2.556;2022-12-24T11:33:21;38.20;;;7.70;;
45476;SDS011;31958;51.756;-2.556;2022-12-24T11:35:48;30.95;;;5.50;;
45476;SDS011;31958;51.756;-2.556;2022-12-24T11:38:21;30.73;;;4.45;;
45476;SDS011;31958;51.756;-2.556;2022-12-24T11:40:49;28.88;;;4.38;;
45476;SDS011;31958;51.756;-2.556;2022-12-24T11:43:22;25.90;;;3.72;;
45476;SDS011;31958;51.756;-2.556;2022-12-24T11:45:56;25.92;;;2.90;;
45476;SDS011;31958;51.756;-2.556;2022-12-24T11:51:06;32.53;;;4.05;;
45476;SDS011;31958;51.756;-2.556;2022-12-24T11:53:45;35.90;;;3.25;;
45476;SDS011;31958;51.756;-2.556;2022-12-24T11:56:48;30.52;;;3.63;;
45476;SDS011;31958;51.756;-2.556;2022-12-24T11:59:21;35.10;;;3.58;;
45476;SDS011;31958;51.756;-2.556;2022-12-24T12:05:23;26.42;;;4.07;;
45476;SDS011;31958;51.756;-2.556;2022-12-24T12:07:45;30.83;;;3.00;;
45476;SDS011;31958;51.756;-2.556;2022-12-24T12:10:16;30.08;;;3.45;;
45476;SDS011;31958;51.756;-2.556;2022-12-24T12:12:48;30.42;;;4.10;;
45476;SDS011;31958;51.756;-2.556;2022-12-24T12:15:20;33.63;;;3.75;;
45476;SDS011;31958;51.756;-2.556;2022-12-24T12:18:02;37.20;;;3.40;;
45476;SDS011;31958;51.756;-2.556;2022-12-24T12:25:54;37.35;;;5.25;;
45476;SDS011;31958;51.756;-2.556;2022-12-24T12:34:17;28.05;;;4.20;;
45476;SDS011;31958;51.756;-2.556;2022-12-24T12:36:47;35.47;;;4.82;;
45476;SDS011;31958;51.756;-2.556;2022-12-24T12:39:14;42.85;;;5.80;;
45476;SDS011;31958;51.756;-2.556;2022-12-24T12:44:42;30.83;;;4.00;;
45476;SDS011;31958;51.756;-2.556;2022-12-24T12:52:22;29.90;;;3.17;;
45476;SDS011;31958;51.756;-2.556;2022-12-24T12:58:02;26.02;;;3.75;;
45476;SDS011;31958;51.756;-2.556;2022-12-24T13:00:32;34.45;;;4.30;;
45476;SDS011;31958;51.756;-2.556;2022-12-24T13:03:12;27.25;;;3.38;;
45476;SDS011;31958;51.756;-2.556;2022-12-24T13:16:18;44.55;;;4.32;;
45476;SDS011;31958;51.756;-2.556;2022-12-24T13:19:05;30.23;;;5.80;;
45476;SDS011;31958;51.756;-2.556;2022-12-24T13:21:53;33.90;;;4.30;;
45476;SDS011;31958;51.756;-2.556;2022-12-24T13:24:20;45.95;;;4.55;;
45476;SDS011;31958;51.756;-2.556;2022-12-24T13:29:41;35.38;;;5.25;;
45476;SDS011;31958;51.756;-2.556;2022-12-24T13:34:45;31.08;;;4.05;;
45476;SDS011;31958;51.756;-2.556;2022-12-24T13:37:31;41.55;;;7.30;;
45476;SDS011;31958;51.756;-2.556;2022-12-24T13:47:52;39.17;;;6.25;;
45476;SDS011;31958;51.756;-2.556;2022-12-24T13:50:22;35.92;;;8.93;;
45476;SDS011;31958;51.756;-2.556;2022-12-24T13:52:52;31.95;;;6.32;;
45476;SDS011;31958;51.756;-2.556;2022-12-24T13:55:18;24.90;;;5.90;;
45476;SDS011;31958;51.756;-2.556;2022-12-24T13:57:44;38.78;;;7.63;;
45476;SDS011;31958;51.756;-2.556;2022-12-24T14:02:46;31.20;;;6.35;;
45476;SDS011;31958;51.756;-2.556;2022-12-24T14:08:01;40.15;;;5.85;;
45476;SDS011;31958;51.756;-2.556;2022-12-24T14:10:39;26.13;;;5.20;;
45476;SDS011;31958;51.756;-2.556;2022-12-24T14:16:02;37.15;;;6.30;;
45476;SDS011;31958;51.756;-2.556;2022-12-24T14:18:34;34.83;;;6.63;;
45476;SDS011;31958;51.756;-2.556;2022-12-24T14:21:02;37.75;;;5.70;;
45476;SDS011;31958;51.756;-2.556;2022-12-24T14:23:40;28.38;;;4.57;;
45476;SDS011;31958;51.756;-2.556;2022-12-24T14:26:17;27.95;;;4.22;;
45476;SDS011;31958;51.756;-2.556;2022-12-24T14:28:45;41.53;;;5.40;;
45476;SDS011;31958;51.756;-2.556;2022-12-24T14:31:16;23.35;;;4.05;;
45476;SDS011;31958;51.756;-2.556;2022-12-24T14:33:42;51.95;;;14.15;;
45476;SDS011;31958;51.756;-2.556;2022-12-24T14:36:08;47.63;;;11.57;;
45476;SDS011;31958;51.756;-2.556;2022-12-24T14:38:34;37.63;;;9.48;;
45476;SDS011;31958;51.756;-2.556;2022-12-24T14:41:03;36.28;;;7.80;;
45476;SDS011;31958;51.756;-2.556;2022-12-24T14:54:39;24.27;;;4.35;;
45476;SDS011;31958;51.756;-2.556;2022-12-24T15:05:18;47.10;;;14.27;;
45476;SDS011;31958;51.756;-2.556;2022-12-24T15:07:46;34.90;;;9.35;;
45476;SDS011;31958;51.756;-2.556;2022-12-24T15:10:35;41.75;;;9.82;;
45476;SDS011;31958;51.756;-2.556;2022-12-24T15:13:03;42.78;;;9.00;;
45476;SDS011;31958;51.756;-2.556;2022-12-24T15:15:30;33.28;;;5.75;;
45476;SDS011;31958;51.756;-2.556;2022-12-24T15:17:57;34.83;;;6.07;;
45476;SDS011;31958;51.756;-2.556;2022-12-24T15:20:24;31.27;;;7.40;;
45476;SDS011;31958;51.756;-2.556;2022-12-24T15:22:51;33.90;;;7.20;;
45476;SDS011;31958;51.756;-2.556;2022-12-24T15:25:29;30.23;;;6.72;;
45476;SDS011;31958;51.756;-2.556;2022-12-24T15:27:56;37.20;;;6.80;;
45476;SDS011;31958;51.756;-2.556;2022-12-24T15:30:23;39.47;;;7.70;;
45476;SDS011;31958;51.756;-2.556;2022-12-24T15:32:51;42.53;;;13.88;;
45476;SDS011;31958;51.756;-2.556;2022-12-24T15:35:31;38.78;;;12.52;;
45476;SDS011;31958;51.756;-2.556;2022-12-24T15:41:04;39.25;;;11.32;;
45476;SDS011;31958;51.756;-2.556;2022-12-24T15:43:31;35.38;;;8.55;;
45476;SDS011;31958;51.756;-2.556;2022-12-24T15:45:57;35.78;;;9.52;;
45476;SDS011;31958;51.756;-2.556;2022-12-24T15:48:24;48.42;;;11.00;;
45476;SDS011;31958;51.756;-2.556;2022-12-24T15:50:54;36.88;;;10.10;;
45476;SDS011;31958;51.756;-2.556;2022-12-24T15:53:29;46.22;;;10.38;;
45476;SDS011;31958;51.756;-2.556;2022-12-24T15:58:25;46.40;;;10.10;;
45476;SDS011;31958;51.756;-2.556;2022-12-24T16:03:30;38.67;;;6.38;;
45476;SDS011;31958;51.756;-2.556;2022-12-24T16:06:14;33.95;;;5.47;;
45476;SDS011;31958;51.756;-2.556;2022-12-24T16:08:40;27.73;;;4.50;;
45476;SDS011;31958;51.756;-2.556;2022-12-24T16:13:36;22.45;;;4.55;;
45476;SDS011;31958;51.756;-2.556;2022-12-24T16:16:52;37.58;;;5.75;;
45476;SDS011;31958;51.756;-2.556;2022-12-24T16:18:58;33.65;;;6.05;;
45476;SDS011;31958;51.756;-2.556;2022-12-24T16:24:23;32.10;;;7.13;;
45476;SDS011;31958;51.756;-2.556;2022-12-24T16:26:50;33.90;;;7.22;;
45476;SDS011;31958;51.756;-2.556;2022-12-24T16:29:16;49.72;;;6.95;;
45476;SDS011;31958;51.756;-2.556;2022-12-24T16:34:15;33.92;;;8.40;;
45476;SDS011;31958;51.756;-2.556;2022-12-24T16:36:41;37.88;;;6.15;;
45476;SDS011;31958;51.756;-2.556;2022-12-24T16:39:18;28.33;;;7.15;;
45476;SDS011;31958;51.756;-2.556;2022-12-24T16:41:48;25.40;;;5.38;;
45476;SDS011;31958;51.756;-2.556;2022-12-24T16:44:36;34.33;;;6.97;;
45476;SDS011;31958;51.756;-2.556;2022-12-24T16:47:02;40.53;;;8.70;;
45476;SDS011;31958;51.756;-2.556;2022-12-24T16:49:29;44.97;;;10.20;;
45476;SDS011;31958;51.756;-2.556;2022-12-24T16:51:55;47.55;;;13.70;;
45476;SDS011;31958;51.756;-2.556;2022-12-24T16:54:20;56.13;;;17.95;;
45476;SDS011;31958;51.756;-2.556;2022-12-24T16:56:46;50.75;;;15.05;;
45476;SDS011;31958;51.756;-2.556;2022-12-24T17:01:44;33.60;;;8.70;;
45476;SDS011;31958;51.756;-2.556;2022-12-24T17:04:09;37.45;;;6.60;;